Svitzer Leixoes — CSXW6 — position and weather

sailwx.info

Track history (hours):
 
Tides and Currents Weather Stations Pressure Air Temp Water Temp Dewpoint Dewpoint Depression Visibility Wind Speed Wind Dir Waves Ship Positions

Svitzer Leixoes

Last reported at 2014-Aug-27 12:33 UTC. Time now 2014-Aug-27 13:15 UTC.
Position N 38°42' W 009°10'.

Length 28 m; draft 3.9 m.

Type: Towing. MMSI: 263622000.

Date/timePositionNaut miles runAvg speedWind from/ knotsBaromVisibWave heightAir tempDewpointWater temp
2014-Aug-27 12:33N 38°42' W 009°10'0 0.0
2014-Aug-27 11:33N 38°42' W 009°10'0 0.0
2014-Aug-27 10:33N 38°42' W 009°10'0 0.0
2014-Aug-27 09:33N 38°42' W 009°10'0 0.0
2014-Aug-27 08:33N 38°42' W 009°10'0 0.0
2014-Aug-27 07:33N 38°42' W 009°10'0 0.0
2014-Aug-27 06:33N 38°42' W 009°10'0 0.0
2014-Aug-27 05:33N 38°42' W 009°10'0 0.0
2014-Aug-27 04:33N 38°42' W 009°10'0 0.0
2014-Aug-27 03:34N 38°42' W 009°10'5 4.7
2014-Aug-27 02:33N 38°41' W 009°04'5 4.7
2014-Aug-27 01:33N 38°42' W 009°10'0 0.0
2014-Aug-27 00:33N 38°42' W 009°10'0 0.0
2014-Aug-26 23:33N 38°42' W 009°10'0 0.0
2014-Aug-26 22:33N 38°42' W 009°10'3 2.8
2014-Aug-26 21:33N 38°41' W 009°13'1 0.6
2014-Aug-26 20:33N 38°41' W 009°13'3 3.0
2014-Aug-26 19:33N 38°42' W 009°10'0 0.0
2014-Aug-26 18:33N 38°42' W 009°10'0 0.0
2014-Aug-26 17:33N 38°42' W 009°10'0 0.0
2014-Aug-26 16:33N 38°42' W 009°10'0 0.0
2014-Aug-26 15:33N 38°42' W 009°10'0 0.0
2014-Aug-26 14:34N 38°42' W 009°10'0 0.0
2014-Aug-26 13:33N 38°42' W 009°10'0 0.0
2014-Aug-26 12:34N 38°42' W 009°10'0 0.0
2014-Aug-26 11:33N 38°42' W 009°10'0 0.2
2014-Aug-26 10:33N 38°42' W 009°10'0 0.2
2014-Aug-26 09:33N 38°42' W 009°10'0 0.0
2014-Aug-26 08:33N 38°42' W 009°10'0 0.0
2014-Aug-26 07:33N 38°42' W 009°10'0 0.4
2014-Aug-26 06:33N 38°42' W 009°10'0 0.4
2014-Aug-26 05:33N 38°42' W 009°10'0 0.0
2014-Aug-26 04:33N 38°42' W 009°10'0 0.0
2014-Aug-26 03:33N 38°42' W 009°10'0 0.0
2014-Aug-26 02:33N 38°42' W 009°10'0 0.0
2014-Aug-26 01:33N 38°42' W 009°10'0 0.0
2014-Aug-26 00:33N 38°42' W 009°10'0 0.0
2014-Aug-25 23:33N 38°42' W 009°10'0 0.0
2014-Aug-25 22:33N 38°42' W 009°10'0 0.0
2014-Aug-25 21:33N 38°42' W 009°10'4 3.9
2014-Aug-25 20:33N 38°41' W 009°14'4 3.7
2014-Aug-25 19:33N 38°42' W 009°10'0 0.3
2014-Aug-25 18:33N 38°42' W 009°10'0 0.0
2014-Aug-25 17:33N 38°42' W 009°10'0 0.0
2014-Aug-25 16:33N 38°42' W 009°10'0 0.0
2014-Aug-25 15:33N 38°42' W 009°10'0 0.0
2014-Aug-25 14:33N 38°42' W 009°10'0 0.1
2014-Aug-25 13:33N 38°42' W 009°10'1 1.0
2014-Aug-25 12:33N 38°42' W 009°11'1 0.9
2014-Aug-25 11:33N 38°42' W 009°10'0 0.0
2014-Aug-25 10:33N 38°42' W 009°10'0 0.0
2014-Aug-25 09:33N 38°42' W 009°10'0 0.0
2014-Aug-25 08:33N 38°42' W 009°10'0 0.0
2014-Aug-25 07:33N 38°42' W 009°10'2 2.3
2014-Aug-25 06:33N 38°43' W 009°07'0 0.2
2014-Aug-25 05:33N 38°43' W 009°07'0 0.0
2014-Aug-25 04:33N 38°43' W 009°07'0 0.0
2014-Aug-25 03:33N 38°43' W 009°07'0 0.0
2014-Aug-25 02:33N 38°43' W 009°07'1 1.0
2014-Aug-25 01:34N 38°42' W 009°08'1 1.3
2014-Aug-25 00:33N 38°42' W 009°10'0 0.0
2014-Aug-24 23:33N 38°42' W 009°10'0 0.0
2014-Aug-24 22:33N 38°42' W 009°10'0 0.0
2014-Aug-24 21:33N 38°42' W 009°10'0 0.0
2014-Aug-24 20:33N 38°42' W 009°10'0 0.0
2014-Aug-24 19:34N 38°42' W 009°10'0 0.0
2014-Aug-24 18:33N 38°42' W 009°10'0 0.0
2014-Aug-24 17:33N 38°42' W 009°10'0 0.0
2014-Aug-24 16:33N 38°42' W 009°10'0 0.0
2014-Aug-24 15:33N 38°42' W 009°10'0 0.0
2014-Aug-24 14:33N 38°42' W 009°10'0 0.0
2014-Aug-24 13:33N 38°42' W 009°10'0 0.0
2014-Aug-24 12:33N 38°42' W 009°10'2 1.8
2014-Aug-24 11:33N 38°41' W 009°11'2 1.7
2014-Aug-24 10:33N 38°42' W 009°10'0 0.2
2014-Aug-24 09:33N 38°42' W 009°10'0 0.0
2014-Aug-24 08:33N 38°42' W 009°10'0 0.0
2014-Aug-24 07:33N 38°42' W 009°10'0 0.0
2014-Aug-24 06:33N 38°42' W 009°10'0 0.0
2014-Aug-24 05:33N 38°42' W 009°10'0 0.0
2014-Aug-24 04:34N 38°42' W 009°10'0 0.0
2014-Aug-24 03:33N 38°42' W 009°10'0 0.0
2014-Aug-24 02:33N 38°42' W 009°10'0 0.0
2014-Aug-24 01:34N 38°42' W 009°10'0 0.0
2014-Aug-24 00:34N 38°42' W 009°10'0 0.0
2014-Aug-23 23:33N 38°42' W 009°10'0 0.0
2014-Aug-23 22:33N 38°42' W 009°10'0 0.0
2014-Aug-23 21:33N 38°42' W 009°10'1 0.5
2014-Aug-23 20:33N 38°42' W 009°09'2 1.9
2014-Aug-23 19:34N 38°43' W 009°07'2 0.1
2014-Aug-23 03:33N 38°42' W 009°10'0 0.0
2014-Aug-23 02:33N 38°42' W 009°10'0 0.0
2014-Aug-23 01:34N 38°42' W 009°10'0 0.0
2014-Aug-23 00:33N 38°42' W 009°10'0 0.0
2014-Aug-22 23:33N 38°42' W 009°10'0 0.0
2014-Aug-22 22:34N 38°42' W 009°10'0 0.0
2014-Aug-22 21:34N 38°42' W 009°10'0 0.0
2014-Aug-22 20:33N 38°42' W 009°10'2 1.7
2014-Aug-22 19:33N 38°42' W 009°07'0 0.5
2014-Aug-22 18:33N 38°42' W 009°08'2 1.6
2014-Aug-22 17:33N 38°42' W 009°10'0 0.0
2014-Aug-22 16:33N 38°42' W 009°10'0 0.0
2014-Aug-22 15:33N 38°42' W 009°10'0 0.0
2014-Aug-22 14:33N 38°42' W 009°10'0 0.0
2014-Aug-22 13:33N 38°42' W 009°10'0 0.0
2014-Aug-22 12:33N 38°42' W 009°10'0 0.0
2014-Aug-22 11:33N 38°42' W 009°10'0 0.0
2014-Aug-22 10:33N 38°42' W 009°10'0 0.0
2014-Aug-22 09:33N 38°42' W 009°10'0 0.0
2014-Aug-22 08:33N 38°42' W 009°10'0 0.0
2014-Aug-22 07:33N 38°42' W 009°10'0 0.0
2014-Aug-22 06:33N 38°42' W 009°10'0 0.0
2014-Aug-22 05:33N 38°42' W 009°10'0 0.0
2014-Aug-22 04:33N 38°42' W 009°10'0 0.0
2014-Aug-22 03:33N 38°42' W 009°10'0 0.0
2014-Aug-22 02:34N 38°42' W 009°10'0 0.0
2014-Aug-22 01:33N 38°42' W 009°10'0 0.0
2014-Aug-22 00:33N 38°42' W 009°10'0 0.0
2014-Aug-21 23:33N 38°42' W 009°10'0 0.0
2014-Aug-21 22:33N 38°42' W 009°10'4 3.8
2014-Aug-21 21:34N 38°41' W 009°14'4 3.8
2014-Aug-21 20:33N 38°42' W 009°10'5 4.7
2014-Aug-21 19:33N 38°41' W 009°04'3 2.5
2014-Aug-21 18:33N 38°41' W 009°07'3 3.1
2014-Aug-21 17:33N 38°41' W 009°11'2 1.6
2014-Aug-21 16:33N 38°42' W 009°10'0 0.0
2014-Aug-21 15:33N 38°42' W 009°10'0 0.0
2014-Aug-21 14:33N 38°42' W 009°10'0 0.0
2014-Aug-21 13:34N 38°42' W 009°10'0 0.0
2014-Aug-21 12:33N 38°42' W 009°10'0 0.0
2014-Aug-21 11:33N 38°42' W 009°10'0 0.0
2014-Aug-21 10:33N 38°42' W 009°10'0 0.0
2014-Aug-21 09:33N 38°42' W 009°10'0 0.0
2014-Aug-21 08:33N 38°42' W 009°10'0 0.0
2014-Aug-21 07:33N 38°42' W 009°10'0 0.0
2014-Aug-21 06:33N 38°42' W 009°10'0 0.0
2014-Aug-21 05:33N 38°42' W 009°10'0 0.0
2014-Aug-21 04:34N 38°42' W 009°10'0 0.0
2014-Aug-21 03:33N 38°42' W 009°10'0 0.0
2014-Aug-21 02:33N 38°42' W 009°10'0 0.0
2014-Aug-21 01:34N 38°42' W 009°10'0 0.0
2014-Aug-21 00:33N 38°42' W 009°10'0 0.0
2014-Aug-20 23:34N 38°42' W 009°10'0 0.0
2014-Aug-20 22:33N 38°42' W 009°10'0 0.0
2014-Aug-20 21:33N 38°42' W 009°10'0 0.0
2014-Aug-20 20:33N 38°42' W 009°10'0 0.0
2014-Aug-20 19:33N 38°42' W 009°10'0 0.0
2014-Aug-20 18:33N 38°42' W 009°10'0 0.0
2014-Aug-20 17:33N 38°42' W 009°10'0 0.0
2014-Aug-20 16:33N 38°42' W 009°10'0 0.0
2014-Aug-20 15:33N 38°42' W 009°10'0 0.0
2014-Aug-20 14:33N 38°42' W 009°10'0 0.0
2014-Aug-20 13:33N 38°42' W 009°10'0 0.0
2014-Aug-20 12:33N 38°42' W 009°10'0 0.0
2014-Aug-20 11:33N 38°42' W 009°10'0 0.0
2014-Aug-20 10:33N 38°42' W 009°10'0 0.0
2014-Aug-20 09:33N 38°42' W 009°10'0 0.0
2014-Aug-20 08:33N 38°42' W 009°10'0 0.0
2014-Aug-20 07:33N 38°42' W 009°10'0 0.0
2014-Aug-20 06:33N 38°42' W 009°10'0 0.0
2014-Aug-20 05:33N 38°42' W 009°10'0 0.0
2014-Aug-20 04:33N 38°42' W 009°10'0 0.0
2014-Aug-20 03:33N 38°42' W 009°10'0 0.0
2014-Aug-20 02:34N 38°42' W 009°10'0 0.0
2014-Aug-20 01:33N 38°42' W 009°10'0 0.0
2014-Aug-20 00:34N 38°42' W 009°10'0 0.0
2014-Aug-19 23:33N 38°42' W 009°10'0 0.0
2014-Aug-19 22:33N 38°42' W 009°10'0 0.0
2014-Aug-19 21:33N 38°42' W 009°10'0 0.0
2014-Aug-19 20:33N 38°42' W 009°10'0 0.0
2014-Aug-19 19:33N 38°42' W 009°10'0 0.0
2014-Aug-19 18:33N 38°42' W 009°10'0 0.0
2014-Aug-19 17:33N 38°42' W 009°10'0 0.0
2014-Aug-19 16:34N 38°42' W 009°10'0 0.0
2014-Aug-19 15:33N 38°42' W 009°10'0 0.0
2014-Aug-19 14:33N 38°42' W 009°10'0 0.0
2014-Aug-19 13:33N 38°42' W 009°10'0 0.0
2014-Aug-19 12:33N 38°42' W 009°10'0 0.0
2014-Aug-19 11:33N 38°42' W 009°10'0 0.0
2014-Aug-19 10:34N 38°42' W 009°10'0 0.0
2014-Aug-19 09:33N 38°42' W 009°10'0 0.0
2014-Aug-19 08:33N 38°42' W 009°10'0 0.0
2014-Aug-19 07:33N 38°42' W 009°10'0 0.0
2014-Aug-19 06:34N 38°42' W 009°10'0 0.0
2014-Aug-19 05:33N 38°42' W 009°10'0 0.0
2014-Aug-19 04:33N 38°42' W 009°10'0 0.0
2014-Aug-19 03:33N 38°42' W 009°10'0 0.0
2014-Aug-19 02:33N 38°42' W 009°10'0 0.0
2014-Aug-19 01:34N 38°42' W 009°10'0 0.0
2014-Aug-19 00:33N 38°42' W 009°10'0 0.0
2014-Aug-18 23:33N 38°42' W 009°10'0 0.0
2014-Aug-18 22:33N 38°42' W 009°10'0 0.0
2014-Aug-18 21:33N 38°42' W 009°10'0 0.0
2014-Aug-18 20:33N 38°42' W 009°10'0 0.0
2014-Aug-18 19:33N 38°42' W 009°10'0 0.0
2014-Aug-18 18:34N 38°42' W 009°10'0 0.0
2014-Aug-18 17:33N 38°42' W 009°10'0 0.0
2014-Aug-18 16:33N 38°42' W 009°10'0 0.0
2014-Aug-18 15:34N 38°42' W 009°10'0 0.0
2014-Aug-18 14:33N 38°42' W 009°10'0 0.0
2014-Aug-18 13:33N 38°42' W 009°10'0 0.0
2014-Aug-18 12:33N 38°42' W 009°10'0 0.0
2014-Aug-18 11:33N 38°42' W 009°10'0 0.0
2014-Aug-18 10:34N 38°42' W 009°10'0 0.0
2014-Aug-18 09:33N 38°42' W 009°10'0 0.0
2014-Aug-18 08:33N 38°42' W 009°10'0 0.0
2014-Aug-18 07:33N 38°42' W 009°10'0 0.0
2014-Aug-18 06:33N 38°42' W 009°10'0 0.0
2014-Aug-18 05:33N 38°42' W 009°10'0 0.0
2014-Aug-18 04:33N 38°42' W 009°10'0 0.0
2014-Aug-18 03:33N 38°42' W 009°10'0 0.0
2014-Aug-18 02:33N 38°42' W 009°10'0 0.0
2014-Aug-18 01:33N 38°42' W 009°10'0 0.0
2014-Aug-18 00:33N 38°42' W 009°10'0 0.0
2014-Aug-17 18:33N 38°42' W 009°10'0 0.0
2014-Aug-17 17:33N 38°42' W 009°10'0 0.0
2014-Aug-17 16:33N 38°42' W 009°10'0 0.0
2014-Aug-17 15:33N 38°42' W 009°10'0 0.0
2014-Aug-17 14:33N 38°42' W 009°10'0 0.0
2014-Aug-17 13:33N 38°42' W 009°10'2 1.9
2014-Aug-17 12:33N 38°43' W 009°07'  
Track history (hours):
 
Tides and Currents Weather Stations Pressure Air Temp Water Temp Dewpoint Dewpoint Depression Visibility Wind Speed Wind Dir Waves Ship Positions

Svitzer Leixoes

Last reported at 2014-Aug-27 12:33 UTC. Time now 2014-Aug-27 13:15 UTC.
Position N 38°42' W 009°10'.

Length 28 m; draft 3.9 m.

Type: Towing. MMSI: 263622000.

Date/timePositionNaut miles runAvg speedWind from/ knotsBaromVisibWave heightAir tempDewpointWater temp
2014-Aug-27 12:33N 38°42' W 009°10'0 0.0
2014-Aug-27 11:33N 38°42' W 009°10'0 0.0
2014-Aug-27 10:33N 38°42' W 009°10'0 0.0
2014-Aug-27 09:33N 38°42' W 009°10'0 0.0
2014-Aug-27 08:33N 38°42' W 009°10'0 0.0
2014-Aug-27 07:33N 38°42' W 009°10'0 0.0
2014-Aug-27 06:33N 38°42' W 009°10'0 0.0
2014-Aug-27 05:33N 38°42' W 009°10'0 0.0
2014-Aug-27 04:33N 38°42' W 009°10'0 0.0
2014-Aug-27 03:34N 38°42' W 009°10'5 4.7
2014-Aug-27 02:33N 38°41' W 009°04'5 4.7
2014-Aug-27 01:33N 38°42' W 009°10'0 0.0
2014-Aug-27 00:33N 38°42' W 009°10'0 0.0
2014-Aug-26 23:33N 38°42' W 009°10'0 0.0
2014-Aug-26 22:33N 38°42' W 009°10'3 2.8
2014-Aug-26 21:33N 38°41' W 009°13'1 0.6
2014-Aug-26 20:33N 38°41' W 009°13'3 3.0
2014-Aug-26 19:33N 38°42' W 009°10'0 0.0
2014-Aug-26 18:33N 38°42' W 009°10'0 0.0
2014-Aug-26 17:33N 38°42' W 009°10'0 0.0
2014-Aug-26 16:33N 38°42' W 009°10'0 0.0
2014-Aug-26 15:33N 38°42' W 009°10'0 0.0
2014-Aug-26 14:34N 38°42' W 009°10'0 0.0
2014-Aug-26 13:33N 38°42' W 009°10'0 0.0
2014-Aug-26 12:34N 38°42' W 009°10'0 0.0
2014-Aug-26 11:33N 38°42' W 009°10'0 0.2
2014-Aug-26 10:33N 38°42' W 009°10'0 0.2
2014-Aug-26 09:33N 38°42' W 009°10'0 0.0
2014-Aug-26 08:33N 38°42' W 009°10'0 0.0
2014-Aug-26 07:33N 38°42' W 009°10'0 0.4
2014-Aug-26 06:33N 38°42' W 009°10'0 0.4
2014-Aug-26 05:33N 38°42' W 009°10'0 0.0
2014-Aug-26 04:33N 38°42' W 009°10'0 0.0
2014-Aug-26 03:33N 38°42' W 009°10'0 0.0
2014-Aug-26 02:33N 38°42' W 009°10'0 0.0
2014-Aug-26 01:33N 38°42' W 009°10'0 0.0
2014-Aug-26 00:33N 38°42' W 009°10'0 0.0
2014-Aug-25 23:33N 38°42' W 009°10'0 0.0
2014-Aug-25 22:33N 38°42' W 009°10'0 0.0
2014-Aug-25 21:33N 38°42' W 009°10'4 3.9
2014-Aug-25 20:33N 38°41' W 009°14'4 3.7
2014-Aug-25 19:33N 38°42' W 009°10'0 0.3
2014-Aug-25 18:33N 38°42' W 009°10'0 0.0
2014-Aug-25 17:33N 38°42' W 009°10'0 0.0
2014-Aug-25 16:33N 38°42' W 009°10'0 0.0
2014-Aug-25 15:33N 38°42' W 009°10'0 0.0
2014-Aug-25 14:33N 38°42' W 009°10'0 0.1
2014-Aug-25 13:33N 38°42' W 009°10'1 1.0
2014-Aug-25 12:33N 38°42' W 009°11'1 0.9
2014-Aug-25 11:33N 38°42' W 009°10'0 0.0
2014-Aug-25 10:33N 38°42' W 009°10'0 0.0
2014-Aug-25 09:33N 38°42' W 009°10'0 0.0
2014-Aug-25 08:33N 38°42' W 009°10'0 0.0
2014-Aug-25 07:33N 38°42' W 009°10'2 2.3
2014-Aug-25 06:33N 38°43' W 009°07'0 0.2
2014-Aug-25 05:33N 38°43' W 009°07'0 0.0
2014-Aug-25 04:33N 38°43' W 009°07'0 0.0
2014-Aug-25 03:33N 38°43' W 009°07'0 0.0
2014-Aug-25 02:33N 38°43' W 009°07'1 1.0
2014-Aug-25 01:34N 38°42' W 009°08'1 1.3
2014-Aug-25 00:33N 38°42' W 009°10'0 0.0
2014-Aug-24 23:33N 38°42' W 009°10'0 0.0
2014-Aug-24 22:33N 38°42' W 009°10'0 0.0
2014-Aug-24 21:33N 38°42' W 009°10'0 0.0
2014-Aug-24 20:33N 38°42' W 009°10'0 0.0
2014-Aug-24 19:34N 38°42' W 009°10'0 0.0
2014-Aug-24 18:33N 38°42' W 009°10'0 0.0
2014-Aug-24 17:33N 38°42' W 009°10'0 0.0
2014-Aug-24 16:33N 38°42' W 009°10'0 0.0
2014-Aug-24 15:33N 38°42' W 009°10'0 0.0
2014-Aug-24 14:33N 38°42' W 009°10'0 0.0
2014-Aug-24 13:33N 38°42' W 009°10'0 0.0
2014-Aug-24 12:33N 38°42' W 009°10'2 1.8
2014-Aug-24 11:33N 38°41' W 009°11'2 1.7
2014-Aug-24 10:33N 38°42' W 009°10'0 0.2
2014-Aug-24 09:33N 38°42' W 009°10'0 0.0
2014-Aug-24 08:33N 38°42' W 009°10'0 0.0
2014-Aug-24 07:33N 38°42' W 009°10'0 0.0
2014-Aug-24 06:33N 38°42' W 009°10'0 0.0
2014-Aug-24 05:33N 38°42' W 009°10'0 0.0
2014-Aug-24 04:34N 38°42' W 009°10'0 0.0
2014-Aug-24 03:33N 38°42' W 009°10'0 0.0
2014-Aug-24 02:33N 38°42' W 009°10'0 0.0
2014-Aug-24 01:34N 38°42' W 009°10'0 0.0
2014-Aug-24 00:34N 38°42' W 009°10'0 0.0
2014-Aug-23 23:33N 38°42' W 009°10'0 0.0
2014-Aug-23 22:33N 38°42' W 009°10'0 0.0
2014-Aug-23 21:33N 38°42' W 009°10'1 0.5
2014-Aug-23 20:33N 38°42' W 009°09'2 1.9
2014-Aug-23 19:34N 38°43' W 009°07'2 0.1
2014-Aug-23 03:33N 38°42' W 009°10'0 0.0
2014-Aug-23 02:33N 38°42' W 009°10'0 0.0
2014-Aug-23 01:34N 38°42' W 009°10'0 0.0
2014-Aug-23 00:33N 38°42' W 009°10'0 0.0
2014-Aug-22 23:33N 38°42' W 009°10'0 0.0
2014-Aug-22 22:34N 38°42' W 009°10'0 0.0
2014-Aug-22 21:34N 38°42' W 009°10'0 0.0
2014-Aug-22 20:33N 38°42' W 009°10'2 1.7
2014-Aug-22 19:33N 38°42' W 009°07'0 0.5
2014-Aug-22 18:33N 38°42' W 009°08'2 1.6
2014-Aug-22 17:33N 38°42' W 009°10'0 0.0
2014-Aug-22 16:33N 38°42' W 009°10'0 0.0
2014-Aug-22 15:33N 38°42' W 009°10'0 0.0
2014-Aug-22 14:33N 38°42' W 009°10'0 0.0
2014-Aug-22 13:33N 38°42' W 009°10'0 0.0
2014-Aug-22 12:33N 38°42' W 009°10'0 0.0
2014-Aug-22 11:33N 38°42' W 009°10'0 0.0
2014-Aug-22 10:33N 38°42' W 009°10'0 0.0
2014-Aug-22 09:33N 38°42' W 009°10'0 0.0
2014-Aug-22 08:33N 38°42' W 009°10'0 0.0
2014-Aug-22 07:33N 38°42' W 009°10'0 0.0
2014-Aug-22 06:33N 38°42' W 009°10'0 0.0
2014-Aug-22 05:33N 38°42' W 009°10'0 0.0
2014-Aug-22 04:33N 38°42' W 009°10'0 0.0
2014-Aug-22 03:33N 38°42' W 009°10'0 0.0
2014-Aug-22 02:34N 38°42' W 009°10'0 0.0
2014-Aug-22 01:33N 38°42' W 009°10'0 0.0
2014-Aug-22 00:33N 38°42' W 009°10'0 0.0
2014-Aug-21 23:33N 38°42' W 009°10'0 0.0
2014-Aug-21 22:33N 38°42' W 009°10'4 3.8
2014-Aug-21 21:34N 38°41' W 009°14'4 3.8
2014-Aug-21 20:33N 38°42' W 009°10'5 4.7
2014-Aug-21 19:33N 38°41' W 009°04'3 2.5
2014-Aug-21 18:33N 38°41' W 009°07'3 3.1
2014-Aug-21 17:33N 38°41' W 009°11'2 1.6
2014-Aug-21 16:33N 38°42' W 009°10'0 0.0
2014-Aug-21 15:33N 38°42' W 009°10'0 0.0
2014-Aug-21 14:33N 38°42' W 009°10'0 0.0
2014-Aug-21 13:34N 38°42' W 009°10'0 0.0
2014-Aug-21 12:33N 38°42' W 009°10'0 0.0
2014-Aug-21 11:33N 38°42' W 009°10'0 0.0
2014-Aug-21 10:33N 38°42' W 009°10'0 0.0
2014-Aug-21 09:33N 38°42' W 009°10'0 0.0
2014-Aug-21 08:33N 38°42' W 009°10'0 0.0
2014-Aug-21 07:33N 38°42' W 009°10'0 0.0
2014-Aug-21 06:33N 38°42' W 009°10'0 0.0
2014-Aug-21 05:33N 38°42' W 009°10'0 0.0
2014-Aug-21 04:34N 38°42' W 009°10'0 0.0
2014-Aug-21 03:33N 38°42' W 009°10'0 0.0
2014-Aug-21 02:33N 38°42' W 009°10'0 0.0
2014-Aug-21 01:34N 38°42' W 009°10'0 0.0
2014-Aug-21 00:33N 38°42' W 009°10'0 0.0
2014-Aug-20 23:34N 38°42' W 009°10'0 0.0
2014-Aug-20 22:33N 38°42' W 009°10'0 0.0
2014-Aug-20 21:33N 38°42' W 009°10'0 0.0
2014-Aug-20 20:33N 38°42' W 009°10'0 0.0
2014-Aug-20 19:33N 38°42' W 009°10'0 0.0
2014-Aug-20 18:33N 38°42' W 009°10'0 0.0
2014-Aug-20 17:33N 38°42' W 009°10'0 0.0
2014-Aug-20 16:33N 38°42' W 009°10'0 0.0
2014-Aug-20 15:33N 38°42' W 009°10'0 0.0
2014-Aug-20 14:33N 38°42' W 009°10'0 0.0
2014-Aug-20 13:33N 38°42' W 009°10'0 0.0
2014-Aug-20 12:33N 38°42' W 009°10'0 0.0
2014-Aug-20 11:33N 38°42' W 009°10'0 0.0
2014-Aug-20 10:33N 38°42' W 009°10'0 0.0
2014-Aug-20 09:33N 38°42' W 009°10'0 0.0
2014-Aug-20 08:33N 38°42' W 009°10'0 0.0
2014-Aug-20 07:33N 38°42' W 009°10'0 0.0
2014-Aug-20 06:33N 38°42' W 009°10'0 0.0
2014-Aug-20 05:33N 38°42' W 009°10'0 0.0
2014-Aug-20 04:33N 38°42' W 009°10'0 0.0
2014-Aug-20 03:33N 38°42' W 009°10'0 0.0
2014-Aug-20 02:34N 38°42' W 009°10'0 0.0
2014-Aug-20 01:33N 38°42' W 009°10'0 0.0
2014-Aug-20 00:34N 38°42' W 009°10'0 0.0
2014-Aug-19 23:33N 38°42' W 009°10'0 0.0
2014-Aug-19 22:33N 38°42' W 009°10'0 0.0
2014-Aug-19 21:33N 38°42' W 009°10'0 0.0
2014-Aug-19 20:33N 38°42' W 009°10'0 0.0
2014-Aug-19 19:33N 38°42' W 009°10'0 0.0
2014-Aug-19 18:33N 38°42' W 009°10'0 0.0
2014-Aug-19 17:33N 38°42' W 009°10'0 0.0
2014-Aug-19 16:34N 38°42' W 009°10'0 0.0
2014-Aug-19 15:33N 38°42' W 009°10'0 0.0
2014-Aug-19 14:33N 38°42' W 009°10'0 0.0
2014-Aug-19 13:33N 38°42' W 009°10'0 0.0
2014-Aug-19 12:33N 38°42' W 009°10'0 0.0
2014-Aug-19 11:33N 38°42' W 009°10'0 0.0
2014-Aug-19 10:34N 38°42' W 009°10'0 0.0
2014-Aug-19 09:33N 38°42' W 009°10'0 0.0
2014-Aug-19 08:33N 38°42' W 009°10'0 0.0
2014-Aug-19 07:33N 38°42' W 009°10'0 0.0
2014-Aug-19 06:34N 38°42' W 009°10'0 0.0
2014-Aug-19 05:33N 38°42' W 009°10'0 0.0
2014-Aug-19 04:33N 38°42' W 009°10'0 0.0
2014-Aug-19 03:33N 38°42' W 009°10'0 0.0
2014-Aug-19 02:33N 38°42' W 009°10'0 0.0
2014-Aug-19 01:34N 38°42' W 009°10'0 0.0
2014-Aug-19 00:33N 38°42' W 009°10'0 0.0
2014-Aug-18 23:33N 38°42' W 009°10'0 0.0
2014-Aug-18 22:33N 38°42' W 009°10'0 0.0
2014-Aug-18 21:33N 38°42' W 009°10'0 0.0
2014-Aug-18 20:33N 38°42' W 009°10'0 0.0
2014-Aug-18 19:33N 38°42' W 009°10'0 0.0
2014-Aug-18 18:34N 38°42' W 009°10'0 0.0
2014-Aug-18 17:33N 38°42' W 009°10'0 0.0
2014-Aug-18 16:33N 38°42' W 009°10'0 0.0
2014-Aug-18 15:34N 38°42' W 009°10'0 0.0
2014-Aug-18 14:33N 38°42' W 009°10'0 0.0
2014-Aug-18 13:33N 38°42' W 009°10'0 0.0
2014-Aug-18 12:33N 38°42' W 009°10'0 0.0
2014-Aug-18 11:33N 38°42' W 009°10'0 0.0
2014-Aug-18 10:34N 38°42' W 009°10'0 0.0
2014-Aug-18 09:33N 38°42' W 009°10'0 0.0
2014-Aug-18 08:33N 38°42' W 009°10'0 0.0
2014-Aug-18 07:33N 38°42' W 009°10'0 0.0
2014-Aug-18 06:33N 38°42' W 009°10'0 0.0
2014-Aug-18 05:33N 38°42' W 009°10'0 0.0
2014-Aug-18 04:33N 38°42' W 009°10'0 0.0
2014-Aug-18 03:33N 38°42' W 009°10'0 0.0
2014-Aug-18 02:33N 38°42' W 009°10'0 0.0
2014-Aug-18 01:33N 38°42' W 009°10'0 0.0
2014-Aug-18 00:33N 38°42' W 009°10'0 0.0
2014-Aug-17 18:33N 38°42' W 009°10'0 0.0
2014-Aug-17 17:33N 38°42' W 009°10'0 0.0
2014-Aug-17 16:33N 38°42' W 009°10'0 0.0
2014-Aug-17 15:33N 38°42' W 009°10'0 0.0
2014-Aug-17 14:33N 38°42' W 009°10'0 0.0
2014-Aug-17 13:33N 38°42' W 009°10'2 1.9
2014-Aug-17 12:33N 38°43' W 009°07'  

Dump ship's entire track history